sensor_id;sensor_type;location;lat;lon;timestamp;temperature;humidity
68274;SHT30;55104;47.356;19.448;2023-09-12T00:02:17;17.49;78.07
68274;SHT30;55104;47.356;19.448;2023-09-12T00:05:19;17.45;78.53
68274;SHT30;55104;47.356;19.448;2023-09-12T00:08:22;17.41;78.67
68274;SHT30;55104;47.356;19.448;2023-09-12T00:11:24;17.41;78.81
68274;SHT30;55104;47.356;19.448;2023-09-12T00:14:28;17.34;78.39
68274;SHT30;55104;47.356;19.448;2023-09-12T00:17:30;17.32;78.32
68274;SHT30;55104;47.356;19.448;2023-09-12T00:20:33;17.28;78.21
68274;SHT30;55104;47.356;19.448;2023-09-12T00:23:54;17.30;78.38
68274;SHT30;55104;47.356;19.448;2023-09-12T00:26:56;17.28;78.01
68274;SHT30;55104;47.356;19.448;2023-09-12T00:29:59;17.23;77.42
68274;SHT30;55104;47.356;19.448;2023-09-12T00:33:01;17.26;77.06
68274;SHT30;55104;47.356;19.448;2023-09-12T00:36:03;17.23;77.11
68274;SHT30;55104;47.356;19.448;2023-09-12T00:39:06;17.21;77.12
68274;SHT30;55104;47.356;19.448;2023-09-12T00:42:08;17.16;77.25
68274;SHT30;55104;47.356;19.448;2023-09-12T00:45:10;17.17;76.85
68274;SHT30;55104;47.356;19.448;2023-09-12T00:48:13;17.14;77.05
68274;SHT30;55104;47.356;19.448;2023-09-12T00:51:18;17.14;77.19
68274;SHT30;55104;47.356;19.448;2023-09-12T00:54:23;17.17;77.31
68274;SHT30;55104;47.356;19.448;2023-09-12T00:57:26;17.14;77.77
68274;SHT30;55104;47.356;19.448;2023-09-12T01:00:29;17.14;77.52
68274;SHT30;55104;47.356;19.448;2023-09-12T01:03:32;17.10;77.37
68274;SHT30;55104;47.356;19.448;2023-09-12T01:06:34;17.11;77.72
68274;SHT30;55104;47.356;19.448;2023-09-12T01:09:37;17.10;77.78
68274;SHT30;55104;47.356;19.448;2023-09-12T01:12:40;17.10;77.61
68274;SHT30;55104;47.356;19.448;2023-09-12T01:15:42;17.03;77.63
68274;SHT30;55104;47.356;19.448;2023-09-12T01:18:46;16.99;77.96
68274;SHT30;55104;47.356;19.448;2023-09-12T01:22:08;16.99;78.45
68274;SHT30;55104;47.356;19.448;2023-09-12T01:28:34;16.94;78.46
68274;SHT30;55104;47.356;19.448;2023-09-12T01:31:38;16.96;78.32
68274;SHT30;55104;47.356;19.448;2023-09-12T01:34:42;16.94;78.38
68274;SHT30;55104;47.356;19.448;2023-09-12T01:37:44;16.94;78.44
68274;SHT30;55104;47.356;19.448;2023-09-12T01:40:51;16.87;79.10
68274;SHT30;55104;47.356;19.448;2023-09-12T01:43:54;16.86;78.95
68274;SHT30;55104;47.356;19.448;2023-09-12T01:47:02;16.86;79.82
68274;SHT30;55104;47.356;19.448;2023-09-12T01:50:08;16.86;79.56
68274;SHT30;55104;47.356;19.448;2023-09-12T01:53:11;16.83;79.72
68274;SHT30;55104;47.356;19.448;2023-09-12T01:56:13;16.82;79.80
68274;SHT30;55104;47.356;19.448;2023-09-12T01:59:15;16.77;79.77
68274;SHT30;55104;47.356;19.448;2023-09-12T02:02:18;16.75;79.77
68274;SHT30;55104;47.356;19.448;2023-09-12T02:05:21;16.77;79.96
68274;SHT30;55104;47.356;19.448;2023-09-12T02:08:25;16.72;80.04
68274;SHT30;55104;47.356;19.448;2023-09-12T02:11:27;16.69;80.06
68274;SHT30;55104;47.356;19.448;2023-09-12T02:14:29;16.69;80.25
68274;SHT30;55104;47.356;19.448;2023-09-12T02:17:31;16.61;80.12
68274;SHT30;55104;47.356;19.448;2023-09-12T02:20:38;16.63;80.67
68274;SHT30;55104;47.356;19.448;2023-09-12T02:23:40;16.63;80.72
68274;SHT30;55104;47.356;19.448;2023-09-12T02:26:42;16.61;80.80
68274;SHT30;55104;47.356;19.448;2023-09-12T02:29:44;16.52;81.06
68274;SHT30;55104;47.356;19.448;2023-09-12T02:32:47;16.49;81.11
68274;SHT30;55104;47.356;19.448;2023-09-12T02:35:49;16.45;81.16
68274;SHT30;55104;47.356;19.448;2023-09-12T02:38:51;16.47;81.30
68274;SHT30;55104;47.356;19.448;2023-09-12T02:41:53;16.45;81.38
68274;SHT30;55104;47.356;19.448;2023-09-12T02:44:55;16.44;81.24
68274;SHT30;55104;47.356;19.448;2023-09-12T02:47:58;16.38;81.38
68274;SHT30;55104;47.356;19.448;2023-09-12T02:51:00;16.34;81.37
68274;SHT30;55104;47.356;19.448;2023-09-12T02:54:02;16.35;81.46
68274;SHT30;55104;47.356;19.448;2023-09-12T02:57:04;16.34;81.74
68274;SHT30;55104;47.356;19.448;2023-09-12T03:00:07;16.29;81.85
68274;SHT30;55104;47.356;19.448;2023-09-12T03:03:11;16.24;81.90
68274;SHT30;55104;47.356;19.448;2023-09-12T03:06:13;16.24;81.93
68274;SHT30;55104;47.356;19.448;2023-09-12T03:09:19;16.22;82.03
68274;SHT30;55104;47.356;19.448;2023-09-12T03:12:22;16.21;82.08
68274;SHT30;55104;47.356;19.448;2023-09-12T03:15:24;16.24;82.03
68274;SHT30;55104;47.356;19.448;2023-09-12T03:18:27;16.25;82.11
68274;SHT30;55104;47.356;19.448;2023-09-12T03:21:30;16.22;82.11
68274;SHT30;55104;47.356;19.448;2023-09-12T03:24:32;16.22;82.15
68274;SHT30;55104;47.356;19.448;2023-09-12T03:27:35;16.17;82.11
68274;SHT30;55104;47.356;19.448;2023-09-12T03:30:38;16.18;82.18
68274;SHT30;55104;47.356;19.448;2023-09-12T03:33:42;16.11;82.50
68274;SHT30;55104;47.356;19.448;2023-09-12T03:36:45;16.07;82.41
68274;SHT30;55104;47.356;19.448;2023-09-12T03:39:47;16.03;82.94
68274;SHT30;55104;47.356;19.448;2023-09-12T03:42:49;16.01;82.64
68274;SHT30;55104;47.356;19.448;2023-09-12T03:45:52;16.00;82.62
68274;SHT30;55104;47.356;19.448;2023-09-12T03:48:54;15.96;82.67
68274;SHT30;55104;47.356;19.448;2023-09-12T03:51:56;15.91;82.78
68274;SHT30;55104;47.356;19.448;2023-09-12T03:54:59;15.91;82.89
68274;SHT30;55104;47.356;19.448;2023-09-12T03:58:03;15.90;83.06
68274;SHT30;55104;47.356;19.448;2023-09-12T04:01:05;15.85;83.02
68274;SHT30;55104;47.356;19.448;2023-09-12T04:04:08;15.83;82.99
68274;SHT30;55104;47.356;19.448;2023-09-12T04:07:10;15.80;83.20
68274;SHT30;55104;47.356;19.448;2023-09-12T04:10:12;15.80;83.36
68274;SHT30;55104;47.356;19.448;2023-09-12T04:13:14;15.79;83.61
68274;SHT30;55104;47.356;19.448;2023-09-12T04:16:16;15.76;83.43
68274;SHT30;55104;47.356;19.448;2023-09-12T04:19:18;15.73;83.32
68274;SHT30;55104;47.356;19.448;2023-09-12T04:22:20;15.78;83.25
68274;SHT30;55104;47.356;19.448;2023-09-12T04:25:25;15.76;83.67
68274;SHT30;55104;47.356;19.448;2023-09-12T04:28:27;15.76;83.56
68274;SHT30;55104;47.356;19.448;2023-09-12T04:31:29;15.82;83.38
68274;SHT30;55104;47.356;19.448;2023-09-12T04:34:31;15.83;83.37
68274;SHT30;55104;47.356;19.448;2023-09-12T04:37:34;15.86;83.27
68274;SHT30;55104;47.356;19.448;2023-09-12T04:40:36;15.89;83.07
68274;SHT30;55104;47.356;19.448;2023-09-12T04:43:41;15.93;83.19
68274;SHT30;55104;47.356;19.448;2023-09-12T04:46:43;15.99;83.25
68274;SHT30;55104;47.356;19.448;2023-09-12T04:49:45;15.99;83.11
68274;SHT30;55104;47.356;19.448;2023-09-12T04:52:47;16.04;83.12
68274;SHT30;55104;47.356;19.448;2023-09-12T04:55:52;16.13;82.94
68274;SHT30;55104;47.356;19.448;2023-09-12T04:58:55;16.22;82.84
68274;SHT30;55104;47.356;19.448;2023-09-12T05:01:57;16.31;82.80
68274;SHT30;55104;47.356;19.448;2023-09-12T05:04:59;16.37;82.70
68274;SHT30;55104;47.356;19.448;2023-09-12T05:08:02;16.49;82.75
68274;SHT30;55104;47.356;19.448;2023-09-12T05:11:04;16.59;82.39
68274;SHT30;55104;47.356;19.448;2023-09-12T05:14:07;16.68;82.14
68274;SHT30;55104;47.356;19.448;2023-09-12T05:17:09;16.76;82.29
68274;SHT30;55104;47.356;19.448;2023-09-12T05:20:11;16.89;81.73
68274;SHT30;55104;47.356;19.448;2023-09-12T05:23:13;16.97;81.58
68274;SHT30;55104;47.356;19.448;2023-09-12T05:26:15;17.09;81.33
68274;SHT30;55104;47.356;19.448;2023-09-12T05:29:18;17.24;81.23
68274;SHT30;55104;47.356;19.448;2023-09-12T05:32:20;17.38;81.06
68274;SHT30;55104;47.356;19.448;2023-09-12T05:35:22;17.48;80.73
68274;SHT30;55104;47.356;19.448;2023-09-12T05:38:25;17.64;80.36
68274;SHT30;55104;47.356;19.448;2023-09-12T05:41:28;17.85;79.74
68274;SHT30;55104;47.356;19.448;2023-09-12T05:44:31;18.06;78.84
68274;SHT30;55104;47.356;19.448;2023-09-12T05:47:34;18.23;77.99
68274;SHT30;55104;47.356;19.448;2023-09-12T05:50:37;18.45;76.32
68274;SHT30;55104;47.356;19.448;2023-09-12T05:53:40;18.75;75.58
68274;SHT30;55104;47.356;19.448;2023-09-12T05:56:42;18.89;75.42
68274;SHT30;55104;47.356;19.448;2023-09-12T05:59:45;19.14;74.35
68274;SHT30;55104;47.356;19.448;2023-09-12T06:02:48;19.26;74.23
68274;SHT30;55104;47.356;19.448;2023-09-12T06:05:50;19.35;74.59
68274;SHT30;55104;47.356;19.448;2023-09-12T06:08:53;19.41;73.17
68274;SHT30;55104;47.356;19.448;2023-09-12T06:11:55;19.50;72.70
68274;SHT30;55104;47.356;19.448;2023-09-12T06:14:57;19.59;72.24
68274;SHT30;55104;47.356;19.448;2023-09-12T06:18:00;19.71;72.08
68274;SHT30;55104;47.356;19.448;2023-09-12T06:21:02;19.93;72.34
68274;SHT30;55104;47.356;19.448;2023-09-12T06:24:18;20.03;71.59
68274;SHT30;55104;47.356;19.448;2023-09-12T06:27:20;20.17;70.60
68274;SHT30;55104;47.356;19.448;2023-09-12T06:30:23;20.31;71.32
68274;SHT30;55104;47.356;19.448;2023-09-12T06:33:26;20.50;70.01
68274;SHT30;55104;47.356;19.448;2023-09-12T06:36:29;20.54;69.78
68274;SHT30;55104;47.356;19.448;2023-09-12T06:39:35;20.68;70.10
68274;SHT30;55104;47.356;19.448;2023-09-12T06:42:39;20.81;68.78
68274;SHT30;55104;47.356;19.448;2023-09-12T06:45:41;20.91;68.71
68274;SHT30;55104;47.356;19.448;2023-09-12T06:48:44;21.06;68.29
68274;SHT30;55104;47.356;19.448;2023-09-12T06:51:48;21.27;67.07
68274;SHT30;55104;47.356;19.448;2023-09-12T06:54:52;21.43;67.64
68274;SHT30;55104;47.356;19.448;2023-09-12T06:57:55;21.51;67.66
68274;SHT30;55104;47.356;19.448;2023-09-12T07:01:07;21.67;68.26
68274;SHT30;55104;47.356;19.448;2023-09-12T07:04:09;21.84;67.08
68274;SHT30;55104;47.356;19.448;2023-09-12T07:07:12;21.95;66.79
68274;SHT30;55104;47.356;19.448;2023-09-12T07:10:14;22.08;66.43
68274;SHT30;55104;47.356;19.448;2023-09-12T07:13:26;22.29;66.49
68274;SHT30;55104;47.356;19.448;2023-09-12T07:16:28;22.40;66.35
68274;SHT30;55104;47.356;19.448;2023-09-12T07:19:30;22.61;66.68
68274;SHT30;55104;47.356;19.448;2023-09-12T07:22:32;22.75;65.10
68274;SHT30;55104;47.356;19.448;2023-09-12T07:25:39;22.90;67.08
68274;SHT30;55104;47.356;19.448;2023-09-12T07:28:42;23.08;65.08
68274;SHT30;55104;47.356;19.448;2023-09-12T07:31:44;23.22;64.95
68274;SHT30;55104;47.356;19.448;2023-09-12T07:34:47;23.51;63.61
68274;SHT30;55104;47.356;19.448;2023-09-12T07:37:50;23.59;63.74
68274;SHT30;55104;47.356;19.448;2023-09-12T07:40:52;23.84;62.85
68274;SHT30;55104;47.356;19.448;2023-09-12T07:43:55;24.04;62.69
68274;SHT30;55104;47.356;19.448;2023-09-12T07:46:57;24.15;61.70
68274;SHT30;55104;47.356;19.448;2023-09-12T07:49:59;24.37;61.24
68274;SHT30;55104;47.356;19.448;2023-09-12T07:53:05;24.60;60.39
68274;SHT30;55104;47.356;19.448;2023-09-12T07:56:09;24.64;59.63
68274;SHT30;55104;47.356;19.448;2023-09-12T07:59:12;24.86;59.75
68274;SHT30;55104;47.356;19.448;2023-09-12T08:02:16;25.03;57.09
68274;SHT30;55104;47.356;19.448;2023-09-12T08:05:18;25.15;57.65
68274;SHT30;55104;47.356;19.448;2023-09-12T08:08:21;25.29;56.02
68274;SHT30;55104;47.356;19.448;2023-09-12T08:11:23;25.41;55.94
68274;SHT30;55104;47.356;19.448;2023-09-12T08:14:25;25.50;57.78
68274;SHT30;55104;47.356;19.448;2023-09-12T08:17:27;25.70;55.31
68274;SHT30;55104;47.356;19.448;2023-09-12T08:20:30;25.71;56.42
68274;SHT30;55104;47.356;19.448;2023-09-12T08:23:32;25.88;56.24
68274;SHT30;55104;47.356;19.448;2023-09-12T08:26:34;26.00;54.56
68274;SHT30;55104;47.356;19.448;2023-09-12T08:29:36;26.14;55.69
68274;SHT30;55104;47.356;19.448;2023-09-12T08:32:40;26.25;53.38
68274;SHT30;55104;47.356;19.448;2023-09-12T08:35:46;26.49;52.96
68274;SHT30;55104;47.356;19.448;2023-09-12T08:38:48;26.55;53.53
68274;SHT30;55104;47.356;19.448;2023-09-12T08:41:51;26.70;54.35
68274;SHT30;55104;47.356;19.448;2023-09-12T08:44:53;26.91;54.00
68274;SHT30;55104;47.356;19.448;2023-09-12T08:47:58;27.11;52.88
68274;SHT30;55104;47.356;19.448;2023-09-12T08:51:02;27.31;51.60
68274;SHT30;55104;47.356;19.448;2023-09-12T08:54:07;27.23;51.61
68274;SHT30;55104;47.356;19.448;2023-09-12T08:57:10;27.38;49.58
68274;SHT30;55104;47.356;19.448;2023-09-12T09:00:14;27.67;50.70
68274;SHT30;55104;47.356;19.448;2023-09-12T09:03:18;27.80;49.34
68274;SHT30;55104;47.356;19.448;2023-09-12T09:06:22;27.98;50.24
68274;SHT30;55104;47.356;19.448;2023-09-12T09:09:25;27.96;49.75
68274;SHT30;55104;47.356;19.448;2023-09-12T09:12:29;28.08;49.17
68274;SHT30;55104;47.356;19.448;2023-09-12T09:15:31;28.33;47.49
68274;SHT30;55104;47.356;19.448;2023-09-12T09:18:52;28.40;48.71
68274;SHT30;55104;47.356;19.448;2023-09-12T09:22:05;28.69;48.04
68274;SHT30;55104;47.356;19.448;2023-09-12T09:25:10;28.59;46.38
68274;SHT30;55104;47.356;19.448;2023-09-12T09:28:17;28.95;47.07
68274;SHT30;55104;47.356;19.448;2023-09-12T09:31:19;29.13;46.11
68274;SHT30;55104;47.356;19.448;2023-09-12T09:34:23;29.25;46.00
68274;SHT30;55104;47.356;19.448;2023-09-12T09:37:26;29.21;46.12
68274;SHT30;55104;47.356;19.448;2023-09-12T09:40:28;29.30;45.75
68274;SHT30;55104;47.356;19.448;2023-09-12T09:43:31;29.44;45.88
68274;SHT30;55104;47.356;19.448;2023-09-12T09:46:37;29.54;45.21
68274;SHT30;55104;47.356;19.448;2023-09-12T09:49:40;29.86;44.34
68274;SHT30;55104;47.356;19.448;2023-09-12T09:52:45;29.95;44.32
68274;SHT30;55104;47.356;19.448;2023-09-12T09:55:47;29.82;43.74
68274;SHT30;55104;47.356;19.448;2023-09-12T09:58:56;29.99;41.88
68274;SHT30;55104;47.356;19.448;2023-09-12T10:01:59;29.95;42.97
68274;SHT30;55104;47.356;19.448;2023-09-12T10:05:05;30.20;43.94
68274;SHT30;55104;47.356;19.448;2023-09-12T10:08:09;30.51;44.08
68274;SHT30;55104;47.356;19.448;2023-09-12T10:11:14;30.67;42.95
68274;SHT30;55104;47.356;19.448;2023-09-12T10:14:19;30.62;41.79
68274;SHT30;55104;47.356;19.448;2023-09-12T10:17:26;30.81;41.85
68274;SHT30;55104;47.356;19.448;2023-09-12T10:20:49;31.00;41.74
68274;SHT30;55104;47.356;19.448;2023-09-12T10:23:53;31.07;41.70
68274;SHT30;55104;47.356;19.448;2023-09-12T10:26:58;31.06;40.55
68274;SHT30;55104;47.356;19.448;2023-09-12T10:30:02;31.19;41.10
68274;SHT30;55104;47.356;19.448;2023-09-12T10:33:06;31.29;40.55
68274;SHT30;55104;47.356;19.448;2023-09-12T10:36:11;31.45;39.30
68274;SHT30;55104;47.356;19.448;2023-09-12T10:39:15;31.36;39.68
68274;SHT30;55104;47.356;19.448;2023-09-12T10:42:20;31.12;40.48
68274;SHT30;55104;47.356;19.448;2023-09-12T10:45:23;31.25;39.35
68274;SHT30;55104;47.356;19.448;2023-09-12T10:48:25;31.33;39.35
68274;SHT30;55104;47.356;19.448;2023-09-12T10:51:27;31.57;39.15
68274;SHT30;55104;47.356;19.448;2023-09-12T10:54:40;31.91;38.61
68274;SHT30;55104;47.356;19.448;2023-09-12T10:58:08;31.82;39.46
68274;SHT30;55104;47.356;19.448;2023-09-12T11:01:24;31.99;39.06
68274;SHT30;55104;47.356;19.448;2023-09-12T11:10:33;32.19;38.86
68274;SHT30;55104;47.356;19.448;2023-09-12T11:13:39;31.82;38.26
68274;SHT30;55104;47.356;19.448;2023-09-12T11:16:43;31.81;39.04
68274;SHT30;55104;47.356;19.448;2023-09-12T11:20:06;32.32;38.08
68274;SHT30;55104;47.356;19.448;2023-09-12T11:23:13;32.32;38.69
68274;SHT30;55104;47.356;19.448;2023-09-12T11:26:15;31.98;38.62
68274;SHT30;55104;47.356;19.448;2023-09-12T11:29:17;32.37;38.26
68274;SHT30;55104;47.356;19.448;2023-09-12T11:32:31;32.53;37.31
68274;SHT30;55104;47.356;19.448;2023-09-12T11:35:36;32.65;37.01
68274;SHT30;55104;47.356;19.448;2023-09-12T11:38:39;32.65;36.45
68274;SHT30;55104;47.356;19.448;2023-09-12T11:41:41;32.74;36.49
68274;SHT30;55104;47.356;19.448;2023-09-12T11:44:44;32.67;36.24
68274;SHT30;55104;47.356;19.448;2023-09-12T11:47:49;32.64;37.14
68274;SHT30;55104;47.356;19.448;2023-09-12T11:50:54;32.65;37.35
68274;SHT30;55104;47.356;19.448;2023-09-12T11:53:56;32.85;36.76
68274;SHT30;55104;47.356;19.448;2023-09-12T11:57:02;32.65;37.30
68274;SHT30;55104;47.356;19.448;2023-09-12T12:00:05;32.56;37.59
68274;SHT30;55104;47.356;19.448;2023-09-12T12:03:14;32.77;36.40
68274;SHT30;55104;47.356;19.448;2023-09-12T12:06:17;32.61;35.72
68274;SHT30;55104;47.356;19.448;2023-09-12T12:09:20;32.82;36.44
68274;SHT30;55104;47.356;19.448;2023-09-12T12:12:22;32.85;36.54
68274;SHT30;55104;47.356;19.448;2023-09-12T12:15:27;32.81;35.46
68274;SHT30;55104;47.356;19.448;2023-09-12T12:18:29;32.27;36.27
68274;SHT30;55104;47.356;19.448;2023-09-12T12:21:32;32.23;37.62
68274;SHT30;55104;47.356;19.448;2023-09-12T12:24:44;32.29;38.23
68274;SHT30;55104;47.356;19.448;2023-09-12T12:27:47;32.64;38.23
68274;SHT30;55104;47.356;19.448;2023-09-12T12:30:51;32.63;36.92
68274;SHT30;55104;47.356;19.448;2023-09-12T12:33:57;32.53;37.32
68274;SHT30;55104;47.356;19.448;2023-09-12T12:37:19;32.32;36.69
68274;SHT30;55104;47.356;19.448;2023-09-12T12:40:22;32.50;37.43
68274;SHT30;55104;47.356;19.448;2023-09-12T12:43:24;32.50;37.50
68274;SHT30;55104;47.356;19.448;2023-09-12T12:46:26;32.49;37.08
68274;SHT30;55104;47.356;19.448;2023-09-12T12:49:36;32.46;36.63
68274;SHT30;55104;47.356;19.448;2023-09-12T12:52:39;32.30;36.38
68274;SHT30;55104;47.356;19.448;2023-09-12T12:55:41;32.46;36.91
68274;SHT30;55104;47.356;19.448;2023-09-12T12:59:03;32.13;36.71
68274;SHT30;55104;47.356;19.448;2023-09-12T13:02:08;32.25;37.86
68274;SHT30;55104;47.356;19.448;2023-09-12T13:05:24;31.91;36.63
68274;SHT30;55104;47.356;19.448;2023-09-12T13:08:26;31.98;37.60
68274;SHT30;55104;47.356;19.448;2023-09-12T13:11:29;32.10;37.51
68274;SHT30;55104;47.356;19.448;2023-09-12T13:14:31;32.13;38.01
68274;SHT30;55104;47.356;19.448;2023-09-12T13:17:34;32.13;38.06
68274;SHT30;55104;47.356;19.448;2023-09-12T13:20:36;32.23;37.19
68274;SHT30;55104;47.356;19.448;2023-09-12T13:23:39;32.25;37.39
68274;SHT30;55104;47.356;19.448;2023-09-12T13:26:42;32.36;37.73
68274;SHT30;55104;47.356;19.448;2023-09-12T13:29:44;32.02;36.22
68274;SHT30;55104;47.356;19.448;2023-09-12T13:32:47;32.02;37.62
68274;SHT30;55104;47.356;19.448;2023-09-12T13:35:49;31.99;37.24
68274;SHT30;55104;47.356;19.448;2023-09-12T13:38:52;32.33;37.11
68274;SHT30;55104;47.356;19.448;2023-09-12T13:41:55;32.32;36.67
68274;SHT30;55104;47.356;19.448;2023-09-12T13:44:59;32.30;37.09
68274;SHT30;55104;47.356;19.448;2023-09-12T13:48:02;32.10;36.41
68274;SHT30;55104;47.356;19.448;2023-09-12T13:51:05;31.95;37.00
68274;SHT30;55104;47.356;19.448;2023-09-12T13:54:08;31.99;37.34
68274;SHT30;55104;47.356;19.448;2023-09-12T13:57:16;32.16;37.59
68274;SHT30;55104;47.356;19.448;2023-09-12T14:00:19;32.20;37.36
68274;SHT30;55104;47.356;19.448;2023-09-12T14:03:33;32.26;36.69
68274;SHT30;55104;47.356;19.448;2023-09-12T14:06:35;32.16;36.56
68274;SHT30;55104;47.356;19.448;2023-09-12T14:09:39;32.19;36.44
68274;SHT30;55104;47.356;19.448;2023-09-12T14:12:42;32.35;37.04
68274;SHT30;55104;47.356;19.448;2023-09-12T14:15:47;32.29;36.31
68274;SHT30;55104;47.356;19.448;2023-09-12T14:18:52;32.09;37.15
68274;SHT30;55104;47.356;19.448;2023-09-12T14:21:55;32.05;36.59
68274;SHT30;55104;47.356;19.448;2023-09-12T14:24:58;32.01;36.94
68274;SHT30;55104;47.356;19.448;2023-09-12T14:28:00;31.96;36.65
68274;SHT30;55104;47.356;19.448;2023-09-12T14:31:03;31.95;37.25
68274;SHT30;55104;47.356;19.448;2023-09-12T14:34:07;31.81;37.00
68274;SHT30;55104;47.356;19.448;2023-09-12T14:37:11;31.77;37.69
68274;SHT30;55104;47.356;19.448;2023-09-12T14:40:13;31.71;36.60
68274;SHT30;55104;47.356;19.448;2023-09-12T14:43:19;31.74;36.69
68274;SHT30;55104;47.356;19.448;2023-09-12T14:46:21;31.68;36.68
68274;SHT30;55104;47.356;19.448;2023-09-12T14:49:23;31.61;36.61
68274;SHT30;55104;47.356;19.448;2023-09-12T14:52:26;31.61;37.50
68274;SHT30;55104;47.356;19.448;2023-09-12T14:55:32;31.55;37.18
68274;SHT30;55104;47.356;19.448;2023-09-12T14:58:34;31.45;36.59
68274;SHT30;55104;47.356;19.448;2023-09-12T15:01:37;31.38;37.07
68274;SHT30;55104;47.356;19.448;2023-09-12T15:04:39;31.36;37.06
68274;SHT30;55104;47.356;19.448;2023-09-12T15:07:42;31.19;37.78
68274;SHT30;55104;47.356;19.448;2023-09-12T15:10:44;31.16;36.85
68274;SHT30;55104;47.356;19.448;2023-09-12T15:13:46;31.04;37.18
68274;SHT30;55104;47.356;19.448;2023-09-12T15:16:50;30.93;38.19
68274;SHT30;55104;47.356;19.448;2023-09-12T15:19:52;30.96;37.73
68274;SHT30;55104;47.356;19.448;2023-09-12T15:22:54;30.72;36.22
68274;SHT30;55104;47.356;19.448;2023-09-12T15:25:56;30.60;37.62
68274;SHT30;55104;47.356;19.448;2023-09-12T15:28:59;30.28;39.32
68274;SHT30;55104;47.356;19.448;2023-09-12T15:32:05;30.05;38.52
68274;SHT30;55104;47.356;19.448;2023-09-12T15:35:08;29.89;38.88
68274;SHT30;55104;47.356;19.448;2023-09-12T15:38:13;29.75;38.32
68274;SHT30;55104;47.356;19.448;2023-09-12T15:41:15;29.69;38.47
68274;SHT30;55104;47.356;19.448;2023-09-12T15:44:18;29.63;39.27
68274;SHT30;55104;47.356;19.448;2023-09-12T15:47:20;29.59;39.43
68274;SHT30;55104;47.356;19.448;2023-09-12T15:50:23;29.58;39.16
68274;SHT30;55104;47.356;19.448;2023-09-12T15:53:25;29.54;38.92
68274;SHT30;55104;47.356;19.448;2023-09-12T15:56:27;29.59;39.46
68274;SHT30;55104;47.356;19.448;2023-09-12T15:59:29;29.45;40.25
68274;SHT30;55104;47.356;19.448;2023-09-12T16:02:33;29.33;41.31
68274;SHT30;55104;47.356;19.448;2023-09-12T16:05:35;29.30;41.40
68274;SHT30;55104;47.356;19.448;2023-09-12T16:08:37;29.10;41.97
68274;SHT30;55104;47.356;19.448;2023-09-12T16:11:39;28.93;42.92
68274;SHT30;55104;47.356;19.448;2023-09-12T16:14:42;28.72;42.83
68274;SHT30;55104;47.356;19.448;2023-09-12T16:17:44;28.52;43.12
68274;SHT30;55104;47.356;19.448;2023-09-12T16:20:46;28.33;43.45
68274;SHT30;55104;47.356;19.448;2023-09-12T16:23:51;28.13;44.71
68274;SHT30;55104;47.356;19.448;2023-09-12T16:26:54;27.93;45.59
68274;SHT30;55104;47.356;19.448;2023-09-12T16:29:57;27.78;47.96
68274;SHT30;55104;47.356;19.448;2023-09-12T16:32:59;27.66;48.46
68274;SHT30;55104;47.356;19.448;2023-09-12T16:36:01;27.52;48.76
68274;SHT30;55104;47.356;19.448;2023-09-12T16:39:22;27.28;49.95
68274;SHT30;55104;47.356;19.448;2023-09-12T16:42:24;27.11;50.71
68274;SHT30;55104;47.356;19.448;2023-09-12T16:45:29;26.87;52.11
68274;SHT30;55104;47.356;19.448;2023-09-12T16:48:31;26.66;51.87
68274;SHT30;55104;47.356;19.448;2023-09-12T16:51:33;26.52;52.95
68274;SHT30;55104;47.356;19.448;2023-09-12T16:54:36;26.33;53.55
68274;SHT30;55104;47.356;19.448;2023-09-12T16:57:40;26.17;54.77
68274;SHT30;55104;47.356;19.448;2023-09-12T17:00:42;25.98;55.98
68274;SHT30;55104;47.356;19.448;2023-09-12T17:03:44;25.76;56.45
68274;SHT30;55104;47.356;19.448;2023-09-12T17:06:48;25.53;56.62
68274;SHT30;55104;47.356;19.448;2023-09-12T17:09:50;25.28;57.71
68274;SHT30;55104;47.356;19.448;2023-09-12T17:12:54;25.14;58.51
68274;SHT30;55104;47.356;19.448;2023-09-12T17:15:56;24.95;59.54
68274;SHT30;55104;47.356;19.448;2023-09-12T17:18:58;24.77;58.66
68274;SHT30;55104;47.356;19.448;2023-09-12T17:22:00;24.61;58.88
68274;SHT30;55104;47.356;19.448;2023-09-12T17:25:03;24.46;61.14
68274;SHT30;55104;47.356;19.448;2023-09-12T17:28:05;24.30;61.09
68274;SHT30;55104;47.356;19.448;2023-09-12T17:31:07;24.19;60.45
68274;SHT30;55104;47.356;19.448;2023-09-12T17:34:13;24.02;60.82
68274;SHT30;55104;47.356;19.448;2023-09-12T17:37:16;23.94;59.51
68274;SHT30;55104;47.356;19.448;2023-09-12T17:40:19;23.81;60.43
68274;SHT30;55104;47.356;19.448;2023-09-12T17:43:21;23.71;60.50
68274;SHT30;55104;47.356;19.448;2023-09-12T17:46:23;23.63;60.77
68274;SHT30;55104;47.356;19.448;2023-09-12T17:49:26;23.51;60.41
68274;SHT30;55104;47.356;19.448;2023-09-12T17:52:28;23.43;60.15
68274;SHT30;55104;47.356;19.448;2023-09-12T17:55:30;23.38;60.07
68274;SHT30;55104;47.356;19.448;2023-09-12T17:58:32;23.24;60.20
68274;SHT30;55104;47.356;19.448;2023-09-12T18:01:35;23.19;62.19
68274;SHT30;55104;47.356;19.448;2023-09-12T18:04:39;23.08;61.92
68274;SHT30;55104;47.356;19.448;2023-09-12T18:07:41;22.99;60.70
68274;SHT30;55104;47.356;19.448;2023-09-12T18:10:43;22.92;60.79
68274;SHT30;55104;47.356;19.448;2023-09-12T18:13:46;22.87;60.62
68274;SHT30;55104;47.356;19.448;2023-09-12T18:16:50;22.77;60.60
68274;SHT30;55104;47.356;19.448;2023-09-12T18:19:52;22.72;61.07
68274;SHT30;55104;47.356;19.448;2023-09-12T18:22:54;22.68;60.97
68274;SHT30;55104;47.356;19.448;2023-09-12T18:26:00;22.64;60.22
68274;SHT30;55104;47.356;19.448;2023-09-12T18:29:03;22.57;59.42
68274;SHT30;55104;47.356;19.448;2023-09-12T18:32:05;22.57;59.49
68274;SHT30;55104;47.356;19.448;2023-09-12T18:35:08;22.46;60.26
68274;SHT30;55104;47.356;19.448;2023-09-12T18:38:10;22.41;59.68
68274;SHT30;55104;47.356;19.448;2023-09-12T18:41:13;22.33;60.41
68274;SHT30;55104;47.356;19.448;2023-09-12T18:44:15;22.26;60.75
68274;SHT30;55104;47.356;19.448;2023-09-12T18:47:18;22.22;60.64
68274;SHT30;55104;47.356;19.448;2023-09-12T18:50:20;22.10;60.90
68274;SHT30;55104;47.356;19.448;2023-09-12T18:53:23;22.03;61.11
68274;SHT30;55104;47.356;19.448;2023-09-12T18:56:25;21.99;61.36
68274;SHT30;55104;47.356;19.448;2023-09-12T18:59:27;21.94;61.17
68274;SHT30;55104;47.356;19.448;2023-09-12T19:02:29;21.86;61.63
68274;SHT30;55104;47.356;19.448;2023-09-12T19:05:31;21.77;62.18
68274;SHT30;55104;47.356;19.448;2023-09-12T19:08:34;21.75;62.20
68274;SHT30;55104;47.356;19.448;2023-09-12T19:11:38;21.74;61.68